Centre, Alabama
Current Conditions -  °F | °C
As of 2:15 AM on Sunday 21 Dec 2014 (Local Time) from K4A9 Reporting Station
Clear Clear  
Wind Chill: 30°   Ceiling: Unl
Heat Index: 30°   Visibility: 7mi
Dew Point: 27°   Wind: 0mph
Humidity: 86%   Direction: NA
Pressure: 30.21"   Gusts: NA
Location:  34.15°N, 85.68°W
Report Text: K4A9 210815Z AUTO 00000KT 7SM CLR M01/M03 A3021 RMK AO2
Loading
Personal Weather Stations






























Interactive Weather Map New forecast layout! Learn more

10-Day Weather Forecast

Advertisements
Track Severe Weather on mobile